Time,TemperatureF,DewpointF,PressureIn,WindDirection,WindDirectionDegrees,WindSpeedMPH,WindSpeedGustMPH,Humidity,HourlyPrecipIn,Conditions,Clouds,dailyrainin,SoftwareType,DateUTC
2013-02-13 00:01:00,43.0,39.0,30.26,SSW,202,0.0,0.0,84,0.00,,,0.00,Rainwise IP-100,2013-02-13 08:01:00,
2013-02-13 00:06:00,43.1,38.0,30.26,SSW,202,0.0,0.0,83,0.00,,,0.00,Rainwise IP-100,2013-02-13 08:06:00,
2013-02-13 00:11:00,42.9,38.0,30.25,SSW,202,0.0,0.0,83,0.00,,,0.00,Rainwise IP-100,2013-02-13 08:11:00,
2013-02-13 00:16:00,42.6,39.0,30.26,SSW,202,0.0,0.0,84,0.00,,,0.00,Rainwise IP-100,2013-02-13 08:16:00,
2013-02-13 00:21:00,42.1,38.0,30.25,SSW,202,0.0,0.0,85,0.00,,,0.00,Rainwise IP-100,2013-02-13 08:21:00,
2013-02-13 00:26:00,41.4,37.0,30.25,SSW,202,0.0,0.0,85,0.00,,,0.00,Rainwise IP-100,2013-02-13 08:26:00,
2013-02-13 00:31:00,40.8,37.0,30.25,SSW,202,0.0,0.0,86,0.00,,,0.00,Rainwise IP-100,2013-02-13 08:31:00,
2013-02-13 00:36:00,40.2,37.0,30.25,SSW,202,0.0,0.0,87,0.00,,,0.00,Rainwise IP-100,2013-02-13 08:36:00,
2013-02-13 00:41:00,39.7,37.0,30.25,SSW,202,0.0,0.0,88,0.00,,,0.00,Rainwise IP-100,2013-02-13 08:41:00,
2013-02-13 00:46:00,39.3,36.0,30.25,SSW,202,0.0,0.0,88,0.00,,,0.00,Rainwise IP-100,2013-02-13 08:46:00,
2013-02-13 00:51:00,39.0,36.0,30.24,SSW,202,0.0,0.0,88,0.00,,,0.00,Rainwise IP-100,2013-02-13 08:51:00,
2013-02-13 00:56:00,38.7,36.0,30.24,SSW,202,0.0,0.0,89,0.00,,,0.00,Rainwise IP-100,2013-02-13 08:56:00,
2013-02-13 01:01:00,38.8,37.0,30.25,SSW,202,0.0,0.0,90,0.00,,,0.00,Rainwise IP-100,2013-02-13 09:01:00,
2013-02-13 01:06:00,39.0,37.0,30.24,SSW,202,0.0,0.0,91,0.00,,,0.00,Rainwise IP-100,2013-02-13 09:06:00,
2013-02-13 01:11:00,39.3,37.0,30.24,SSW,202,0.0,0.0,92,0.00,,,0.00,Rainwise IP-100,2013-02-13 09:11:00,
2013-02-13 01:16:00,40.6,39.0,30.24,SSW,202,0.0,0.0,91,0.00,,,0.00,Rainwise IP-100,2013-02-13 09:16:00,
2013-02-13 01:21:00,42.3,38.0,30.24,SSW,202,0.0,0.0,87,0.00,,,0.00,Rainwise IP-100,2013-02-13 09:21:00,
2013-02-13 01:26:00,42.2,38.0,30.24,SSW,202,0.0,0.0,85,0.00,,,0.00,Rainwise IP-100,2013-02-13 09:26:00,
2013-02-13 01:31:00,41.2,37.0,30.23,SSW,202,0.0,0.0,86,0.00,,,0.00,Rainwise IP-100,2013-02-13 09:31:00,
2013-02-13 01:36:00,40.3,37.0,30.24,SSW,202,0.0,0.0,87,0.00,,,0.00,Rainwise IP-100,2013-02-13 09:36:00,
2013-02-13 01:41:00,39.6,37.0,30.23,SSW,202,0.0,0.0,88,0.00,,,0.00,Rainwise IP-100,2013-02-13 09:41:00,
2013-02-13 01:46:00,38.9,36.0,30.23,SSW,202,0.0,0.0,89,0.00,,,0.00,Rainwise IP-100,2013-02-13 09:46:00,
2013-02-13 01:51:00,38.5,37.0,30.23,SSW,202,0.0,0.0,90,0.00,,,0.00,Rainwise IP-100,2013-02-13 09:51:00,
2013-02-13 01:56:00,38.4,36.0,30.23,SSW,202,0.0,0.0,91,0.00,,,0.00,Rainwise IP-100,2013-02-13 09:56:00,
2013-02-13 02:01:00,38.3,36.0,30.23,SSW,202,0.0,0.0,92,0.00,,,0.00,Rainwise IP-100,2013-02-13 10:01:00,
2013-02-13 02:06:00,38.0,36.0,30.23,SSW,202,0.0,0.0,91,0.00,,,0.00,Rainwise IP-100,2013-02-13 10:06:00,
2013-02-13 02:11:00,37.8,36.0,30.22,SSW,202,0.0,0.0,91,0.00,,,0.00,Rainwise IP-100,2013-02-13 10:11:00,
2013-02-13 02:16:00,38.2,36.0,30.23,WNW,292,1.2,2.3,91,0.00,,,0.00,Rainwise IP-100,2013-02-13 10:16:00,
2013-02-13 02:21:00,39.7,38.0,30.23,WNW,292,1.6,1.6,90,0.00,,,0.00,Rainwise IP-100,2013-02-13 10:21:00,
2013-02-13 02:26:00,41.1,37.0,30.22,WNW,292,0.0,1.9,86,0.00,,,0.00,Rainwise IP-100,2013-02-13 10:26:00,
2013-02-13 02:31:00,41.3,37.0,30.22,WNW,292,0.0,0.0,85,0.00,,,0.00,Rainwise IP-100,2013-02-13 10:31:00,
2013-02-13 02:36:00,40.7,37.0,30.23,WNW,292,0.0,0.0,85,0.00,,,0.00,Rainwise IP-100,2013-02-13 10:36:00,
2013-02-13 02:41:00,40.2,37.0,30.22,WNW,292,0.0,2.8,86,0.00,,,0.00,Rainwise IP-100,2013-02-13 10:41:00,
2013-02-13 02:46:00,39.9,37.0,30.22,NNE,22,0.0,1.9,87,0.00,,,0.00,Rainwise IP-100,2013-02-13 10:46:00,
2013-02-13 02:51:00,39.9,37.0,30.22,North,360,1.4,4.4,86,0.00,,,0.00,Rainwise IP-100,2013-02-13 10:51:00,
2013-02-13 02:56:00,39.6,37.0,30.22,North,360,0.0,2.8,86,0.00,,,0.00,Rainwise IP-100,2013-02-13 10:56:00,
2013-02-13 03:01:00,38.8,36.0,30.22,North,360,0.0,0.0,87,0.00,,,0.00,Rainwise IP-100,2013-02-13 11:01:00,
2013-02-13 03:06:00,38.4,35.0,30.22,NNE,22,0.0,0.0,88,0.00,,,0.00,Rainwise IP-100,2013-02-13 11:06:00,
2013-02-13 03:11:00,38.2,35.0,30.22,NNE,22,0.0,0.0,89,0.00,,,0.00,Rainwise IP-100,2013-02-13 11:11:00,
2013-02-13 03:16:00,37.9,36.0,30.22,NNE,22,0.0,0.0,90,0.00,,,0.00,Rainwise IP-100,2013-02-13 11:16:00,
2013-02-13 03:21:00,37.6,36.0,30.22,NNE,22,0.0,0.0,90,0.00,,,0.00,Rainwise IP-100,2013-02-13 11:21:00,
2013-02-13 03:26:00,37.1,35.0,30.21,ESE,112,1.6,2.8,90,0.00,,,0.00,Rainwise IP-100,2013-02-13 11:26:00,
2013-02-13 03:31:00,36.9,35.0,30.22,WNW,292,1.9,2.6,91,0.00,,,0.00,Rainwise IP-100,2013-02-13 11:31:00,
2013-02-13 03:36:00,37.7,36.0,30.22,WNW,292,0.0,2.1,91,0.00,,,0.00,Rainwise IP-100,2013-02-13 11:36:00,
2013-02-13 03:41:00,38.6,37.0,30.22,WNW,292,0.0,1.4,90,0.00,,,0.00,Rainwise IP-100,2013-02-13 11:41:00,
2013-02-13 03:46:00,38.9,36.0,30.22,WNW,292,0.0,1.4,88,0.00,,,0.00,Rainwise IP-100,2013-02-13 11:46:00,
2013-02-13 03:51:00,39.0,36.0,30.22,WNW,292,1.9,2.8,88,0.00,,,0.00,Rainwise IP-100,2013-02-13 11:51:00,
2013-02-13 03:56:00,39.0,36.0,30.22,WNW,292,0.0,2.8,88,0.00,,,0.00,Rainwise IP-100,2013-02-13 11:56:00,
2013-02-13 04:01:00,38.9,36.0,30.22,WNW,292,0.0,1.2,87,0.00,,,0.00,Rainwise IP-100,2013-02-13 12:01:00,
2013-02-13 04:06:00,38.5,36.0,30.21,WNW,292,0.0,1.4,88,0.00,,,0.00,Rainwise IP-100,2013-02-13 12:06:00,
2013-02-13 04:11:00,38.0,35.0,30.22,WNW,292,3.0,3.3,89,0.00,,,0.00,Rainwise IP-100,2013-02-13 12:11:00,
2013-02-13 04:16:00,38.3,35.0,30.22,WNW,292,2.3,3.5,89,0.00,,,0.00,Rainwise IP-100,2013-02-13 12:16:00,
2013-02-13 04:21:00,39.5,37.0,30.21,WNW,292,0.0,2.6,87,0.00,,,0.00,Rainwise IP-100,2013-02-13 12:21:00,
2013-02-13 04:26:00,40.1,37.0,30.22,WNW,292,0.0,0.0,86,0.00,,,0.00,Rainwise IP-100,2013-02-13 12:26:00,
2013-02-13 04:31:00,39.9,37.0,30.21,WNW,292,0.0,1.6,86,0.00,,,0.00,Rainwise IP-100,2013-02-13 12:31:00,
2013-02-13 04:36:00,39.6,37.0,30.22,WNW,292,0.0,0.0,86,0.00,,,0.00,Rainwise IP-100,2013-02-13 12:36:00,
2013-02-13 04:41:00,39.0,36.0,30.22,WNW,292,2.3,2.3,87,0.00,,,0.00,Rainwise IP-100,2013-02-13 12:41:00,
2013-02-13 04:46:00,38.5,36.0,30.22,West,270,0.0,3.3,87,0.00,,,0.00,Rainwise IP-100,2013-02-13 12:46:00,
2013-02-13 04:51:00,38.8,36.0,30.22,West,270,2.1,2.6,87,0.00,,,0.00,Rainwise IP-100,2013-02-13 12:51:00,
2013-02-13 04:56:00,39.5,37.0,30.22,West,270,0.0,2.3,86,0.00,,,0.00,Rainwise IP-100,2013-02-13 12:56:00,
2013-02-13 05:01:00,39.3,36.0,30.22,West,270,0.0,1.4,86,0.00,,,0.00,Rainwise IP-100,2013-02-13 13:01:00,
2013-02-13 05:06:00,38.6,36.0,30.22,West,270,0.0,2.1,87,0.00,,,0.00,Rainwise IP-100,2013-02-13 13:06:00,
2013-02-13 05:11:00,38.0,35.0,30.22,West,270,0.0,0.0,89,0.00,,,0.00,Rainwise IP-100,2013-02-13 13:11:00,
2013-02-13 05:16:00,37.6,35.0,30.22,West,270,1.4,1.6,89,0.00,,,0.00,Rainwise IP-100,2013-02-13 13:16:00,
2013-02-13 05:21:00,37.6,36.0,30.22,WNW,292,1.2,4.0,90,0.00,,,0.00,Rainwise IP-100,2013-02-13 13:21:00,
2013-02-13 05:26:00,38.4,35.0,30.22,WNW,292,0.0,1.9,89,0.00,,,0.00,Rainwise IP-100,2013-02-13 13:26:00,
2013-02-13 05:31:00,39.7,37.0,30.22,WNW,292,0.0,1.9,86,0.00,,,0.00,Rainwise IP-100,2013-02-13 13:31:00,
2013-02-13 05:36:00,40.4,36.0,30.23,WNW,292,0.0,0.0,82,0.00,,,0.00,Rainwise IP-100,2013-02-13 13:36:00,
2013-02-13 05:41:00,40.7,36.0,30.22,WNW,292,0.0,2.6,80,0.00,,,0.00,Rainwise IP-100,2013-02-13 13:41:00,
2013-02-13 05:46:00,41.1,35.0,30.22,WNW,292,0.0,0.0,78,0.00,,,0.00,Rainwise IP-100,2013-02-13 13:46:00,
2013-02-13 05:51:00,40.9,35.0,30.23,WNW,292,0.0,0.0,78,0.00,,,0.00,Rainwise IP-100,2013-02-13 13:51:00,
2013-02-13 05:56:00,40.6,35.0,30.23,WNW,292,0.0,0.0,78,0.00,,,0.00,Rainwise IP-100,2013-02-13 13:56:00,
2013-02-13 06:01:00,40.1,35.0,30.23,WNW,292,0.0,0.0,79,0.00,,,0.00,Rainwise IP-100,2013-02-13 14:01:00,
2013-02-13 06:06:00,39.3,33.0,30.23,WNW,292,0.0,1.2,81,0.00,,,0.00,Rainwise IP-100,2013-02-13 14:06:00,
2013-02-13 06:11:00,39.0,33.0,30.23,WNW,292,0.0,0.0,81,0.00,,,0.00,Rainwise IP-100,2013-02-13 14:11:00,
2013-02-13 06:16:00,39.7,35.0,30.23,WNW,292,0.0,1.4,79,0.00,,,0.00,Rainwise IP-100,2013-02-13 14:16:00,
2013-02-13 06:21:00,40.3,33.0,30.23,WNW,292,0.0,1.6,77,0.00,,,0.00,Rainwise IP-100,2013-02-13 14:21:00,
2013-02-13 06:26:00,40.2,33.0,30.23,WNW,292,0.0,1.2,77,0.00,,,0.00,Rainwise IP-100,2013-02-13 14:26:00,
2013-02-13 06:31:00,40.4,33.0,30.23,WNW,292,0.0,1.2,77,0.00,,,0.00,Rainwise IP-100,2013-02-13 14:31:00,
2013-02-13 06:36:00,40.6,35.0,30.23,WNW,292,0.0,0.0,77,0.00,,,0.00,Rainwise IP-100,2013-02-13 14:36:00,
2013-02-13 06:41:00,40.1,35.0,30.23,WNW,292,1.9,1.9,78,0.00,,,0.00,Rainwise IP-100,2013-02-13 14:41:00,
2013-02-13 06:46:00,39.7,35.0,30.24,WNW,292,0.0,2.1,79,0.00,,,0.00,Rainwise IP-100,2013-02-13 14:46:00,
2013-02-13 06:51:00,39.5,35.0,30.24,WNW,292,0.0,0.0,80,0.00,,,0.00,Rainwise IP-100,2013-02-13 14:51:00,
2013-02-13 06:56:00,38.8,35.0,30.23,WNW,292,0.0,0.0,82,0.00,,,0.00,Rainwise IP-100,2013-02-13 14:56:00,
2013-02-13 07:01:00,38.3,33.0,30.24,WNW,292,0.0,2.1,84,0.00,,,0.00,Rainwise IP-100,2013-02-13 15:01:00,
2013-02-13 07:06:00,38.2,35.0,30.24,WNW,292,0.0,1.6,85,0.00,,,0.00,Rainwise IP-100,2013-02-13 15:06:00,
2013-02-13 07:11:00,38.1,35.0,30.24,WNW,292,0.0,1.9,86,0.00,,,0.00,Rainwise IP-100,2013-02-13 15:11:00,
2013-02-13 07:16:00,38.1,35.0,30.24,WNW,292,0.0,1.2,87,0.00,,,0.00,Rainwise IP-100,2013-02-13 15:16:00,
2013-02-13 07:21:00,38.7,36.0,30.24,ESE,112,0.0,1.9,87,0.00,,,0.00,Rainwise IP-100,2013-02-13 15:21:00,
2013-02-13 07:26:00,39.2,36.0,30.25,ESE,112,0.0,0.0,86,0.00,,,0.00,Rainwise IP-100,2013-02-13 15:26:00,
2013-02-13 07:31:00,39.8,36.0,30.25,ESE,112,0.0,0.0,85,0.00,,,0.00,Rainwise IP-100,2013-02-13 15:31:00,
2013-02-13 07:36:00,41.1,37.0,30.25,ESE,112,1.6,2.1,85,0.00,,,0.00,Rainwise IP-100,2013-02-13 15:36:00,
2013-02-13 07:41:00,42.0,38.0,30.25,ESE,112,0.0,2.1,84,0.00,,,0.00,Rainwise IP-100,2013-02-13 15:41:00,
2013-02-13 07:46:00,42.4,37.0,30.26,ESE,112,0.0,3.0,82,0.00,,,0.00,Rainwise IP-100,2013-02-13 15:46:00,
2013-02-13 07:51:00,43.0,38.0,30.26,ESE,112,0.0,0.0,81,0.00,,,0.00,Rainwise IP-100,2013-02-13 15:51:00,
2013-02-13 07:56:00,44.0,38.0,30.26,ESE,112,1.2,1.4,80,0.00,,,0.00,Rainwise IP-100,2013-02-13 15:56:00,
2013-02-13 08:01:00,45.2,38.0,30.26,ESE,112,1.2,1.9,78,0.00,,,0.00,Rainwise IP-100,2013-02-13 16:01:00,
2013-02-13 08:06:00,46.0,38.0,30.26,ESE,112,0.0,2.1,75,0.00,,,0.00,Rainwise IP-100,2013-02-13 16:06:00,
2013-02-13 08:11:00,46.6,38.0,30.26,ESE,112,0.0,1.2,73,0.00,,,0.00,Rainwise IP-100,2013-02-13 16:11:00,
2013-02-13 08:16:00,47.4,39.0,30.26,ESE,112,0.0,1.2,72,0.00,,,0.00,Rainwise IP-100,2013-02-13 16:16:00,
2013-02-13 08:21:00,48.3,39.0,30.26,ESE,112,0.0,0.0,71,0.00,,,0.00,Rainwise IP-100,2013-02-13 16:21:00,
2013-02-13 08:26:00,49.4,39.0,30.26,ESE,112,0.0,1.6,69,0.00,,,0.00,Rainwise IP-100,2013-02-13 16:26:00,
2013-02-13 08:31:00,50.6,40.0,30.26,ESE,112,0.0,1.6,68,0.00,,,0.00,Rainwise IP-100,2013-02-13 16:31:00,
2013-02-13 08:36:00,51.6,40.0,30.26,North,360,0.0,2.8,65,0.00,,,0.00,Rainwise IP-100,2013-02-13 16:36:00,
2013-02-13 08:41:00,52.4,40.0,30.26,North,360,0.0,2.3,63,0.00,,,0.00,Rainwise IP-100,2013-02-13 16:41:00,
2013-02-13 08:46:00,53.1,39.0,30.26,NNE,22,0.0,3.3,61,0.00,,,0.00,Rainwise IP-100,2013-02-13 16:46:00,
2013-02-13 08:51:00,53.6,39.0,30.26,NNE,22,0.0,3.3,59,0.00,,,0.00,Rainwise IP-100,2013-02-13 16:51:00,
2013-02-13 08:56:00,54.2,39.0,30.26,North,360,2.3,2.8,58,0.00,,,0.00,Rainwise IP-100,2013-02-13 16:56:00,
2013-02-13 09:01:00,54.9,40.0,30.26,NNE,22,1.4,3.5,57,0.00,,,0.00,Rainwise IP-100,2013-02-13 17:01:00,
2013-02-13 09:06:00,55.5,40.0,30.26,ESE,112,1.4,2.8,56,0.00,,,0.00,Rainwise IP-100,2013-02-13 17:06:00,
2013-02-13 09:11:00,56.1,40.0,30.26,ESE,112,0.0,2.3,55,0.00,,,0.00,Rainwise IP-100,2013-02-13 17:11:00,
2013-02-13 09:16:00,56.6,40.0,30.26,SE,135,0.0,1.9,54,0.00,,,0.00,Rainwise IP-100,2013-02-13 17:16:00,
2013-02-13 09:21:00,57.3,41.0,30.26,SE,135,1.4,1.4,54,0.00,,,0.00,Rainwise IP-100,2013-02-13 17:21:00,
2013-02-13 09:26:00,58.0,41.0,30.26,North,360,0.0,2.8,54,0.00,,,0.00,Rainwise IP-100,2013-02-13 17:26:00,
2013-02-13 09:31:00,58.6,42.0,30.26,ESE,112,1.6,2.8,54,0.00,,,0.00,Rainwise IP-100,2013-02-13 17:31:00,
2013-02-13 09:36:00,59.1,42.0,30.26,ESE,112,0.0,2.3,53,0.00,,,0.00,Rainwise IP-100,2013-02-13 17:36:00,
2013-02-13 09:41:00,59.6,42.0,30.26,ESE,112,1.4,2.6,52,0.00,,,0.00,Rainwise IP-100,2013-02-13 17:41:00,
2013-02-13 09:46:00,60.0,42.0,30.26,SSE,157,1.2,3.5,51,0.00,,,0.00,Rainwise IP-100,2013-02-13 17:46:00,
2013-02-13 09:51:00,60.5,42.0,30.26,SSW,202,1.6,3.3,50,0.00,,,0.00,Rainwise IP-100,2013-02-13 17:51:00,
2013-02-13 09:56:00,60.5,40.0,30.25,South,180,2.8,4.9,48,0.00,,,0.00,Rainwise IP-100,2013-02-13 17:56:00,
2013-02-13 10:01:00,60.7,40.0,30.25,South,180,2.6,3.0,48,0.00,,,0.00,Rainwise IP-100,2013-02-13 18:01:00,
2013-02-13 10:06:00,61.4,41.0,30.25,SE,135,1.2,3.0,48,0.00,,,0.00,Rainwise IP-100,2013-02-13 18:06:00,
2013-02-13 10:11:00,61.9,41.0,30.26,SSE,157,2.3,4.4,47,0.00,,,0.00,Rainwise IP-100,2013-02-13 18:11:00,
2013-02-13 10:16:00,62.1,41.0,30.25,SSW,202,6.8,6.8,46,0.00,,,0.00,Rainwise IP-100,2013-02-13 18:16:00,
2013-02-13 10:21:00,61.8,41.0,30.25,South,180,4.2,7.2,47,0.00,,,0.00,Rainwise IP-100,2013-02-13 18:21:00,
2013-02-13 10:26:00,61.7,43.0,30.25,SSW,202,4.7,6.3,50,0.00,,,0.00,Rainwise IP-100,2013-02-13 18:26:00,
2013-02-13 10:31:00,61.4,43.0,30.25,South,180,6.1,7.9,51,0.00,,,0.00,Rainwise IP-100,2013-02-13 18:31:00,
2013-02-13 10:36:00,60.8,44.0,30.26,SSW,202,5.6,7.9,53,0.00,,,0.00,Rainwise IP-100,2013-02-13 18:36:00,
2013-02-13 10:41:00,60.3,44.0,30.25,SSW,202,4.2,9.8,54,0.00,,,0.00,Rainwise IP-100,2013-02-13 18:41:00,
2013-02-13 10:46:00,59.9,44.0,30.25,SSW,202,4.4,6.5,56,0.00,,,0.00,Rainwise IP-100,2013-02-13 18:46:00,
2013-02-13 10:51:00,59.9,45.0,30.25,SSE,157,1.9,7.0,58,0.00,,,0.00,Rainwise IP-100,2013-02-13 18:51:00,
2013-02-13 10:56:00,60.2,46.0,30.25,South,180,4.7,7.5,60,0.00,,,0.00,Rainwise IP-100,2013-02-13 18:56:00,
2013-02-13 11:01:00,60.1,46.0,30.25,SSW,202,3.3,7.5,60,0.00,,,0.00,Rainwise IP-100,2013-02-13 19:01:00,
2013-02-13 11:06:00,59.8,46.0,30.25,SSW,202,3.3,7.5,59,0.00,,,0.00,Rainwise IP-100,2013-02-13 19:06:00,
2013-02-13 11:11:00,59.7,45.0,30.25,SSW,202,1.2,6.1,59,0.00,,,0.00,Rainwise IP-100,2013-02-13 19:11:00,
2013-02-13 11:16:00,59.6,45.0,30.25,SW,225,6.5,7.2,59,0.00,,,0.00,Rainwise IP-100,2013-02-13 19:16:00,
2013-02-13 11:21:00,59.6,46.0,30.25,SSW,202,2.6,8.4,60,0.00,,,0.00,Rainwise IP-100,2013-02-13 19:21:00,
2013-02-13 11:26:00,60.0,47.0,30.24,South,180,4.2,4.9,61,0.00,,,0.00,Rainwise IP-100,2013-02-13 19:26:00,
2013-02-13 11:31:00,60.2,46.0,30.24,South,180,1.6,7.0,60,0.00,,,0.00,Rainwise IP-100,2013-02-13 19:31:00,
2013-02-13 11:36:00,60.2,46.0,30.24,SSW,202,2.1,5.1,59,0.00,,,0.00,Rainwise IP-100,2013-02-13 19:36:00,
2013-02-13 11:41:00,60.5,46.0,30.23,SSW,202,4.2,6.8,59,0.00,,,0.00,Rainwise IP-100,2013-02-13 19:41:00,
2013-02-13 11:46:00,60.6,46.0,30.23,SSW,202,4.7,5.4,58,0.00,,,0.00,Rainwise IP-100,2013-02-13 19:46:00,
2013-02-13 11:51:00,60.6,45.0,30.23,South,180,0.0,5.6,57,0.00,,,0.00,Rainwise IP-100,2013-02-13 19:51:00,
2013-02-13 11:56:00,60.7,46.0,30.23,SSW,202,3.3,6.5,58,0.00,,,0.00,Rainwise IP-100,2013-02-13 19:56:00,
2013-02-13 12:01:00,60.9,46.0,30.23,SSW,202,4.0,7.5,58,0.00,,,0.00,Rainwise IP-100,2013-02-13 20:01:00,
2013-02-13 12:06:00,60.7,46.0,30.22,SSW,202,3.5,6.3,59,0.00,,,0.00,Rainwise IP-100,2013-02-13 20:06:00,
2013-02-13 12:11:00,60.6,46.0,30.22,SSW,202,4.7,6.5,58,0.00,,,0.00,Rainwise IP-100,2013-02-13 20:11:00,
2013-02-13 12:16:00,60.7,45.0,30.22,South,180,3.5,6.8,56,0.00,,,0.00,Rainwise IP-100,2013-02-13 20:16:00,
2013-02-13 12:21:00,60.8,45.0,30.22,SSW,202,2.3,6.1,56,0.00,,,0.00,Rainwise IP-100,2013-02-13 20:21:00,
2013-02-13 12:26:00,60.9,45.0,30.22,South,180,2.6,6.8,56,0.00,,,0.00,Rainwise IP-100,2013-02-13 20:26:00,
2013-02-13 12:31:00,60.9,45.0,30.21,SW,225,4.7,5.1,55,0.00,,,0.00,Rainwise IP-100,2013-02-13 20:31:00,
2013-02-13 12:36:00,60.8,45.0,30.21,SW,225,4.4,7.5,55,0.00,,,0.00,Rainwise IP-100,2013-02-13 20:36:00,
2013-02-13 12:42:00,60.9,45.0,30.20,South,180,4.4,6.8,56,0.00,,,0.00,Rainwise IP-100,2013-02-13 20:42:00,
2013-02-13 12:47:00,61.2,45.0,30.20,SSW,202,3.7,6.3,55,0.00,,,0.00,Rainwise IP-100,2013-02-13 20:47:00,
2013-02-13 12:52:00,61.4,46.0,30.20,West,270,1.2,6.3,56,0.00,,,0.00,Rainwise IP-100,2013-02-13 20:52:00,
2013-02-13 12:57:00,61.5,47.0,30.20,SSW,202,3.3,6.1,58,0.00,,,0.00,Rainwise IP-100,2013-02-13 20:57:00,
2013-02-13 13:02:00,61.6,47.0,30.19,SSW,202,3.5,5.1,59,0.00,,,0.00,Rainwise IP-100,2013-02-13 21:02:00,
2013-02-13 13:07:00,61.6,47.0,30.19,SSW,202,3.7,5.6,59,0.00,,,0.00,Rainwise IP-100,2013-02-13 21:07:00,
2013-02-13 13:12:00,61.4,47.5,30.19,SSW,202,3.5,6.5,60,0.00,,,0.00,Rainwise IP-100,2013-02-13 21:12:00,
2013-02-13 13:17:00,61.3,47.5,30.19,SSW,202,4.4,7.0,60,0.00,,,0.00,Rainwise IP-100,2013-02-13 21:17:00,
2013-02-13 13:22:00,61.1,47.0,30.19,SSW,202,3.7,7.9,60,0.00,,,0.00,Rainwise IP-100,2013-02-13 21:22:00,
2013-02-13 13:27:00,61.0,47.0,30.19,SSW,202,6.1,6.1,59,0.00,,,0.00,Rainwise IP-100,2013-02-13 21:27:00,
2013-02-13 13:32:00,61.2,46.0,30.19,SSW,202,3.3,7.2,57,0.00,,,0.00,Rainwise IP-100,2013-02-13 21:32:00,
2013-02-13 13:37:00,61.4,46.0,30.19,SSW,202,1.9,6.1,57,0.00,,,0.00,Rainwise IP-100,2013-02-13 21:37:00,
2013-02-13 13:42:00,61.8,46.0,30.18,SSE,157,0.0,4.9,56,0.00,,,0.00,Rainwise IP-100,2013-02-13 21:42:00,
2013-02-13 13:47:00,62.1,45.0,30.18,SSE,157,1.2,7.2,54,0.00,,,0.00,Rainwise IP-100,2013-02-13 21:47:00,
2013-02-13 13:52:00,62.2,45.0,30.18,SSW,202,0.0,5.8,54,0.00,,,0.00,Rainwise IP-100,2013-02-13 21:52:00,
2013-02-13 13:57:00,62.5,45.0,30.18,SSW,202,1.6,5.4,53,0.00,,,0.00,Rainwise IP-100,2013-02-13 21:57:00,
2013-02-13 14:02:00,63.1,46.0,30.18,SW,225,2.3,4.2,53,0.00,,,0.00,Rainwise IP-100,2013-02-13 22:02:00,
2013-02-13 14:07:00,63.4,47.0,30.17,SSW,202,3.7,5.1,54,0.00,,,0.00,Rainwise IP-100,2013-02-13 22:07:00,
2013-02-13 14:12:00,63.4,47.0,30.17,SSW,202,1.4,6.3,54,0.00,,,0.00,Rainwise IP-100,2013-02-13 22:12:00,
2013-02-13 14:17:00,63.1,46.0,30.17,SSW,202,2.1,6.5,54,0.00,,,0.00,Rainwise IP-100,2013-02-13 22:17:00,
2013-02-13 14:22:00,62.7,46.0,30.16,South,180,2.6,6.5,54,0.00,,,0.00,Rainwise IP-100,2013-02-13 22:22:00,
2013-02-13 14:27:00,62.6,46.0,30.17,SSW,202,3.0,4.4,55,0.00,,,0.00,Rainwise IP-100,2013-02-13 22:27:00,
2013-02-13 14:32:00,62.4,47.0,30.16,SSW,202,3.5,6.1,56,0.00,,,0.00,Rainwise IP-100,2013-02-13 22:32:00,
2013-02-13 14:37:00,62.0,47.0,30.16,SSW,202,4.2,8.4,57,0.00,,,0.00,Rainwise IP-100,2013-02-13 22:37:00,
2013-02-13 21:14:00,46.6,42.0,30.16,WSW,247,0.0,0.0,83,0.00,,,0.00,Rainwise IP-100,2013-02-14 05:14:00,
2013-02-13 21:15:00,46.6,42.0,30.16,WSW,247,0.0,0.0,83,0.00,,,0.00,Rainwise IP-100,2013-02-14 05:15:00,
2013-02-13 21:20:00,46.8,42.0,30.17,WSW,247,0.0,0.0,84,0.00,,,0.00,Rainwise IP-100,2013-02-14 05:20:00,
2013-02-13 21:25:00,47.0,42.0,30.17,WSW,247,0.0,0.0,84,0.00,,,0.00,Rainwise IP-100,2013-02-14 05:25:00,
2013-02-13 21:30:00,47.0,42.0,30.17,WSW,247,0.0,0.0,85,0.00,,,0.00,Rainwise IP-100,2013-02-14 05:30:00,
2013-02-13 21:35:00,46.9,42.0,30.17,WSW,247,0.0,0.0,85,0.00,,,0.00,Rainwise IP-100,2013-02-14 05:35:00,
2013-02-13 21:40:00,46.7,43.0,30.17,WSW,247,0.0,0.0,86,0.00,,,0.00,Rainwise IP-100,2013-02-14 05:40:00,
2013-02-13 21:45:00,46.8,43.0,30.17,WSW,247,0.0,0.0,86,0.00,,,0.00,Rainwise IP-100,2013-02-14 05:45:00,
2013-02-13 21:50:00,47.3,43.0,30.16,WSW,247,0.0,0.0,86,0.00,,,0.00,Rainwise IP-100,2013-02-14 05:50:00,
2013-02-13 21:55:00,47.4,43.0,30.17,WSW,247,0.0,1.2,84,0.00,,,0.00,Rainwise IP-100,2013-02-14 05:55:00,
2013-02-13 22:00:00,46.8,42.0,30.17,WSW,247,0.0,0.0,85,0.00,,,0.00,Rainwise IP-100,2013-02-14 06:00:00,
2013-02-13 22:05:00,46.1,41.0,30.17,WSW,247,0.0,0.0,85,0.00,,,0.00,Rainwise IP-100,2013-02-14 06:05:00,
2013-02-13 22:10:00,45.7,41.0,30.17,WSW,247,0.0,0.0,85,0.00,,,0.00,Rainwise IP-100,2013-02-14 06:10:00,
2013-02-13 22:15:00,45.7,41.0,30.17,WSW,247,0.0,0.0,85,0.00,,,0.00,Rainwise IP-100,2013-02-14 06:15:00,
2013-02-13 22:20:00,45.7,41.0,30.17,WSW,247,0.0,0.0,85,0.00,,,0.00,Rainwise IP-100,2013-02-14 06:20:00,
2013-02-13 22:25:00,45.4,41.0,30.17,WSW,247,0.0,0.0,86,0.00,,,0.00,Rainwise IP-100,2013-02-14 06:25:00,
2013-02-13 22:30:00,45.1,41.0,30.17,WSW,247,0.0,0.0,87,0.00,,,0.00,Rainwise IP-100,2013-02-14 06:30:00,
2013-02-13 22:35:00,45.2,41.0,30.17,WSW,247,0.0,0.0,86,0.00,,,0.00,Rainwise IP-100,2013-02-14 06:35:00,
2013-02-13 22:40:00,45.6,42.0,30.17,WSW,247,0.0,0.0,86,0.00,,,0.00,Rainwise IP-100,2013-02-14 06:40:00,
2013-02-13 22:45:00,45.8,41.0,30.17,WSW,247,0.0,0.0,85,0.00,,,0.00,Rainwise IP-100,2013-02-14 06:45:00,
2013-02-13 22:50:00,45.3,41.0,30.17,WSW,247,0.0,0.0,85,0.00,,,0.00,Rainwise IP-100,2013-02-14 06:50:00,
2013-02-13 22:55:00,44.8,41.0,30.17,WSW,247,0.0,0.0,85,0.00,,,0.00,Rainwise IP-100,2013-02-14 06:55:00,
2013-02-13 23:00:00,44.4,40.0,30.17,WSW,247,0.0,0.0,86,0.00,,,0.00,Rainwise IP-100,2013-02-14 07:00:00,
2013-02-13 23:05:00,44.7,41.0,30.18,WSW,247,0.0,0.0,86,0.00,,,0.00,Rainwise IP-100,2013-02-14 07:05:00,
2013-02-13 23:06:00,44.7,41.0,30.18,WSW,247,0.0,0.0,86,0.00,,,0.00,Rainwise IP-100,2013-02-14 07:06:00,
2013-02-13 23:11:00,45.3,41.0,30.17,WSW,247,0.0,0.0,85,0.00,,,0.00,Rainwise IP-100,2013-02-14 07:11:00,
2013-02-13 23:16:00,45.3,41.0,30.17,WSW,247,0.0,1.2,85,0.00,,,0.00,Rainwise IP-100,2013-02-14 07:16:00,
2013-02-13 23:21:00,45.0,41.0,30.18,WSW,247,0.0,0.0,85,0.00,,,0.00,Rainwise IP-100,2013-02-14 07:21:00,
2013-02-13 23:26:00,44.4,40.0,30.18,WSW,247,0.0,0.0,85,0.00,,,0.00,Rainwise IP-100,2013-02-14 07:26:00,
2013-02-13 23:31:00,43.9,40.0,30.17,WSW,247,0.0,0.0,86,0.00,,,0.00,Rainwise IP-100,2013-02-14 07:31:00,
2013-02-13 23:36:00,43.4,39.0,30.17,WSW,247,0.0,0.0,87,0.00,,,0.00,Rainwise IP-100,2013-02-14 07:36:00,
2013-02-13 23:41:00,43.5,40.0,30.17,WSW,247,0.0,0.0,87,0.00,,,0.00,Rainwise IP-100,2013-02-14 07:41:00,
2013-02-13 23:46:00,44.0,40.0,30.17,WSW,247,0.0,0.0,87,0.00,,,0.00,Rainwise IP-100,2013-02-14 07:46:00,
2013-02-13 23:51:00,44.3,40.0,30.17,WSW,247,0.0,0.0,87,0.00,,,0.00,Rainwise IP-100,2013-02-14 07:51:00,
2013-02-13 23:56:00,44.4,40.0,30.17,WSW,247,0.0,0.0,87,0.00,,,0.00,Rainwise IP-100,2013-02-14 07:56:00,